createdAt,value
2023-05-14T00:01:01.267Z,101080.69
2023-05-14T00:03:27.970Z,101075.31
2023-05-14T00:05:54.604Z,101072.88
2023-05-14T00:08:21.062Z,101067.50
2023-05-14T00:10:47.566Z,101061.81
2023-05-14T00:13:14.084Z,101060.38
2023-05-14T00:15:40.860Z,101060.38
2023-05-14T00:18:07.780Z,101061.66
2023-05-14T00:20:34.279Z,101061.75
2023-05-14T00:23:01.095Z,101058.00
2023-05-14T00:25:27.764Z,101058.31
2023-05-14T00:27:54.507Z,101057.69
2023-05-14T00:30:21.129Z,101056.44
2023-05-14T00:32:47.707Z,101049.22
2023-05-14T00:35:14.344Z,101052.16
2023-05-14T00:37:40.905Z,101047.91
2023-05-14T00:40:08.692Z,101051.28
2023-05-14T00:42:35.174Z,101048.38
2023-05-14T00:45:01.810Z,101047.25
2023-05-14T00:47:28.663Z,101049.47
2023-05-14T00:49:55.230Z,101049.19
2023-05-14T00:52:22.208Z,101056.06
2023-05-14T00:54:49.504Z,101050.59
2023-05-14T00:57:16.146Z,101042.69
2023-05-14T00:59:42.758Z,101049.78
2023-05-14T01:02:09.589Z,101051.09
2023-05-14T01:04:38.018Z,101048.66
2023-05-14T01:07:17.896Z,101050.59
2023-05-14T01:10:09.579Z,101050.78
2023-05-14T01:12:44.912Z,101043.69
2023-05-14T01:15:13.073Z,101041.28
2023-05-14T01:17:47.526Z,101040.47
2023-05-14T01:20:15.659Z,101050.41
2023-05-14T01:22:42.631Z,101041.88
2023-05-14T01:25:09.831Z,101047.00
2023-05-14T01:27:52.562Z,101054.41
2023-05-14T01:30:29.894Z,101048.22
2023-05-14T01:33:00.617Z,101047.22
2023-05-14T01:35:29.461Z,101039.94
2023-05-14T01:37:57.803Z,101042.47
2023-05-14T01:40:25.607Z,101038.28
2023-05-14T01:42:53.139Z,101034.72
2023-05-14T01:45:25.637Z,101033.41
2023-05-14T01:47:53.076Z,101029.50
2023-05-14T01:50:20.038Z,101031.59
2023-05-14T01:52:48.365Z,101025.97
2023-05-14T01:55:15.950Z,101034.78
2023-05-14T01:57:42.404Z,101039.44
2023-05-14T02:00:09.420Z,101032.16
2023-05-14T02:02:36.204Z,101029.72
2023-05-14T02:05:04.332Z,101030.84
2023-05-14T02:07:33.046Z,101035.19
2023-05-14T02:09:59.602Z,101024.09
2023-05-14T02:12:26.400Z,101027.31
2023-05-14T02:14:52.910Z,101023.56
2023-05-14T02:17:20.263Z,101021.16
2023-05-14T02:19:47.173Z,101014.66
2023-05-14T02:22:13.888Z,101016.59
2023-05-14T02:24:41.392Z,101014.59
2023-05-14T02:27:08.024Z,101017.94
2023-05-14T02:29:34.693Z,101016.31
2023-05-14T02:32:01.216Z,101011.00
2023-05-14T02:34:27.735Z,101014.63
2023-05-14T02:36:54.235Z,101016.06
2023-05-14T02:39:22.986Z,101016.69
2023-05-14T02:41:49.393Z,101015.88
2023-05-14T02:44:15.987Z,101006.06
2023-05-14T02:46:43.220Z,101012.00
2023-05-14T02:49:10.053Z,101010.59
2023-05-14T02:51:36.852Z,101010.09
2023-05-14T02:54:03.427Z,101000.97
2023-05-14T02:56:29.898Z,101013.84
2023-05-14T02:58:56.348Z,101003.41
2023-05-14T03:01:23.410Z,101009.38
2023-05-14T03:03:54.949Z,101000.66
2023-05-14T03:09:04.937Z,101007.16
2023-05-14T03:11:33.608Z,101009.78
2023-05-14T03:14:00.947Z,101010.50
2023-05-14T03:16:33.182Z,101000.66
2023-05-14T03:19:02.804Z,101008.78
2023-05-14T03:21:29.622Z,101002.00
2023-05-14T03:23:59.761Z,101001.25
2023-05-14T03:26:26.378Z,101002.06
2023-05-14T03:28:53.018Z,101002.25
2023-05-14T03:31:19.782Z,100989.09
2023-05-14T03:33:46.810Z,100996.97
2023-05-14T03:36:13.340Z,100991.69
2023-05-14T03:38:39.979Z,100993.25
2023-05-14T03:41:06.535Z,100985.75
2023-05-14T03:43:33.011Z,100990.56
2023-05-14T03:45:59.960Z,101000.28
2023-05-14T03:48:26.545Z,100987.50
2023-05-14T03:50:53.115Z,100979.91
2023-05-14T03:53:19.905Z,100989.63
2023-05-14T03:55:46.507Z,100979.00
2023-05-14T03:58:14.446Z,100984.47
2023-05-14T04:00:42.431Z,100983.66
2023-05-14T04:03:10.971Z,100974.34
2023-05-14T04:05:38.135Z,100979.31
2023-05-14T04:08:05.025Z,100977.56
2023-05-14T04:10:32.372Z,100982.31
2023-05-14T04:12:58.913Z,100975.28
2023-05-14T04:15:25.445Z,100974.16
2023-05-14T04:17:52.007Z,100981.44
2023-05-14T04:20:18.622Z,100978.56
2023-05-14T04:22:45.920Z,100973.91
2023-05-14T04:25:12.839Z,100971.19
2023-05-14T04:27:39.936Z,100975.44
2023-05-14T04:30:08.399Z,100975.44
2023-05-14T04:32:34.884Z,100980.41
2023-05-14T04:35:01.737Z,100974.22
2023-05-14T04:37:28.293Z,100967.28
2023-05-14T04:39:55.703Z,100976.97
2023-05-14T04:42:22.223Z,100969.56
2023-05-14T04:44:48.968Z,100971.38
2023-05-14T04:47:15.494Z,100975.84
2023-05-14T04:49:42.823Z,100970.06
2023-05-14T04:52:09.376Z,100975.72
2023-05-14T04:54:36.230Z,100976.84
2023-05-14T04:57:03.562Z,100976.84
2023-05-14T04:59:31.455Z,100973.09
2023-05-14T05:01:58.297Z,100975.84
2023-05-14T05:04:25.138Z,100973.81
2023-05-14T05:06:51.920Z,100976.72
2023-05-14T05:09:19.015Z,100976.09
2023-05-14T05:11:45.528Z,100974.34
2023-05-14T05:14:12.061Z,100970.06
2023-05-14T05:16:38.532Z,100972.38
2023-05-14T05:19:05.237Z,100972.66
2023-05-14T05:21:31.815Z,100969.66
2023-05-14T05:23:58.304Z,100963.31
2023-05-14T05:26:26.857Z,100967.81
2023-05-14T05:28:53.825Z,100971.84
2023-05-14T05:31:20.629Z,100966.69
2023-05-14T05:33:47.229Z,100963.22
2023-05-14T05:36:13.802Z,100961.13
2023-05-14T05:38:40.341Z,100961.50
2023-05-14T05:41:07.548Z,100955.25
2023-05-14T05:43:34.177Z,100966.22
2023-05-14T05:46:01.940Z,100962.06
2023-05-14T05:48:28.422Z,100971.75
2023-05-14T05:50:55.112Z,100964.38
2023-05-14T05:53:21.723Z,100962.31
2023-05-14T05:55:48.196Z,100968.09
2023-05-14T05:58:17.238Z,100957.16
2023-05-14T06:00:44.234Z,100968.47
2023-05-14T06:03:11.838Z,100955.94
2023-05-14T06:05:38.427Z,100962.53
2023-05-14T06:08:05.534Z,100954.31
2023-05-14T06:10:32.152Z,100962.22
2023-05-14T06:12:58.648Z,100948.19
2023-05-14T06:15:25.252Z,100962.06
2023-05-14T06:17:51.885Z,100964.50
2023-05-14T06:20:19.149Z,100967.69
2023-05-14T06:22:45.673Z,100963.84
2023-05-14T06:25:12.279Z,100961.59
2023-05-14T06:27:38.806Z,100964.31
2023-05-14T06:30:07.284Z,100965.09
2023-05-14T06:32:33.783Z,100962.47
2023-05-14T06:35:00.648Z,100949.47
2023-05-14T06:37:27.369Z,100954.25
2023-05-14T06:39:54.730Z,100943.28
2023-05-14T06:42:22.860Z,100949.25
2023-05-14T06:44:49.423Z,100947.25
2023-05-14T06:47:15.922Z,100940.00
2023-05-14T06:49:42.534Z,100934.44
2023-05-14T06:52:09.407Z,100938.44
2023-05-14T06:54:36.219Z,100933.78
2023-05-14T06:57:03.384Z,100926.31
2023-05-14T06:59:29.957Z,100924.28
2023-05-14T07:01:56.513Z,100925.97
2023-05-14T07:04:23.154Z,100921.50
2023-05-14T07:06:49.833Z,100919.16
2023-05-14T07:09:16.615Z,100922.13
2023-05-14T07:11:43.429Z,100913.84
2023-05-14T07:14:09.973Z,100917.16
2023-05-14T07:16:37.000Z,100918.91
2023-05-14T07:19:03.736Z,100904.16
2023-05-14T07:21:30.436Z,100908.16
2023-05-14T07:23:57.146Z,100914.44
2023-05-14T07:26:24.537Z,100910.31
2023-05-14T07:28:51.107Z,100913.97
2023-05-14T07:31:17.874Z,100914.41
2023-05-14T07:33:44.481Z,100909.34
2023-05-14T07:36:11.227Z,100905.66
2023-05-14T07:38:37.836Z,100900.53
2023-05-14T07:41:04.674Z,100900.06
2023-05-14T07:43:31.627Z,100897.50
2023-05-14T07:46:00.276Z,100902.19
2023-05-14T07:48:26.797Z,100894.28
2023-05-14T07:50:53.830Z,100892.19
2023-05-14T07:53:22.039Z,100885.91
2023-05-14T07:55:49.495Z,100881.28
2023-05-14T07:58:16.613Z,100872.34
2023-05-14T08:00:43.226Z,100875.75
2023-05-14T08:03:09.914Z,100868.50
2023-05-14T08:05:36.673Z,100877.22
2023-05-14T08:08:03.194Z,100878.84
2023-05-14T08:10:29.882Z,100880.31
2023-05-14T08:12:56.522Z,100876.84
2023-05-14T08:15:24.555Z,100874.63
2023-05-14T08:18:03.450Z,100877.78
2023-05-14T08:20:31.178Z,100867.88
2023-05-14T08:23:00.663Z,100869.84
2023-05-14T08:25:27.176Z,100863.16
2023-05-14T08:27:54.258Z,100856.25
2023-05-14T08:30:22.270Z,100855.53
2023-05-14T08:32:49.001Z,100861.53
2023-05-14T08:35:16.203Z,100851.09
2023-05-14T08:37:42.841Z,100854.28
2023-05-14T08:40:10.157Z,100846.16
2023-05-14T08:42:40.486Z,100849.72
2023-05-14T08:45:14.036Z,100845.72
2023-05-14T08:47:40.720Z,100844.00
2023-05-14T08:50:08.592Z,100839.84
2023-05-14T08:52:35.631Z,100837.31
2023-05-14T08:55:06.440Z,100833.78
2023-05-14T08:57:34.620Z,100826.41
2023-05-14T09:00:07.240Z,100832.22
2023-05-14T09:02:34.278Z,100827.53
2023-05-14T09:05:04.244Z,100829.59
2023-05-14T09:07:31.452Z,100830.47
2023-05-14T09:09:58.772Z,100826.19
2023-05-14T09:12:26.178Z,100815.75
2023-05-14T09:14:52.636Z,100824.75
2023-05-14T09:17:19.897Z,100817.59
2023-05-14T09:19:49.061Z,100812.44
2023-05-14T09:22:17.769Z,100815.53
2023-05-14T09:24:44.944Z,100813.91
2023-05-14T09:27:21.638Z,100810.72
2023-05-14T09:29:48.496Z,100821.50
2023-05-14T09:32:15.067Z,100821.31
2023-05-14T09:34:42.242Z,100821.50
2023-05-14T09:37:10.124Z,100819.44
2023-05-14T09:39:39.033Z,100824.59
2023-05-14T09:42:06.174Z,100814.38
2023-05-14T09:44:36.228Z,100810.88
2023-05-14T09:47:02.906Z,100803.97
2023-05-14T09:49:29.478Z,100798.09
2023-05-14T09:51:57.930Z,100795.38
2023-05-14T09:54:27.094Z,100783.50
2023-05-14T09:56:55.638Z,100790.09
2023-05-14T09:59:22.469Z,100774.44
2023-05-14T10:01:49.961Z,100774.56
2023-05-14T10:04:18.254Z,100778.81
2023-05-14T10:06:49.650Z,100775.34
2023-05-14T10:09:18.777Z,100776.78
2023-05-14T10:11:52.784Z,100775.16
2023-05-14T10:14:29.391Z,100768.72
2023-05-14T10:17:00.214Z,100764.13
2023-05-14T10:19:28.336Z,100767.69
2023-05-14T10:22:05.557Z,100771.53
2023-05-14T10:24:35.660Z,100773.19
2023-05-14T10:27:02.697Z,100765.56
2023-05-14T10:29:37.816Z,100765.91
2023-05-14T10:32:06.901Z,100768.50
2023-05-14T10:34:41.547Z,100768.16
2023-05-14T10:37:09.536Z,100771.41
2023-05-14T10:39:48.347Z,100766.00
2023-05-14T10:42:23.480Z,100759.81
2023-05-14T10:44:58.926Z,100754.13
2023-05-14T10:47:27.005Z,100750.03
2023-05-14T10:49:59.129Z,100752.41
2023-05-14T10:52:28.008Z,100746.78
2023-05-14T10:55:03.782Z,100745.91
2023-05-14T10:57:32.207Z,100742.78
2023-05-14T11:00:01.924Z,100740.00
2023-05-14T11:02:39.621Z,100737.69
2023-05-14T11:05:19.502Z,100729.47
2023-05-14T11:07:50.256Z,100729.25
2023-05-14T11:10:18.519Z,100737.75
2023-05-14T11:12:47.735Z,100725.34
2023-05-14T11:15:16.766Z,100728.81
2023-05-14T11:17:45.029Z,100732.25
2023-05-14T11:20:12.086Z,100723.34
2023-05-14T11:22:42.025Z,100720.81
2023-05-14T11:25:10.023Z,100716.13
2023-05-14T11:27:40.843Z,100717.16
2023-05-14T11:30:19.475Z,100709.16
2023-05-14T11:32:47.852Z,100715.97
2023-05-14T11:35:15.409Z,100711.56
2023-05-14T11:37:42.817Z,100709.00
2023-05-14T11:40:16.648Z,100710.41
2023-05-14T11:42:43.517Z,100704.75
2023-05-14T11:45:14.252Z,100702.78
2023-05-14T11:47:42.729Z,100699.16
2023-05-14T11:50:09.911Z,100695.03
2023-05-14T11:52:41.437Z,100696.75
2023-05-14T11:55:14.817Z,100693.69
2023-05-14T11:57:42.530Z,100694.84
2023-05-14T12:00:16.645Z,100685.22
2023-05-14T12:02:43.283Z,100691.59
2023-05-14T12:05:12.987Z,100691.53
2023-05-14T12:07:39.514Z,100684.88
2023-05-14T12:10:06.634Z,100679.78
2023-05-14T12:12:39.861Z,100681.63
2023-05-14T12:15:13.829Z,100678.09
2023-05-14T12:17:40.770Z,100676.38
2023-05-14T12:20:10.584Z,100673.56
2023-05-14T12:22:37.742Z,100677.38
2023-05-14T12:25:04.708Z,100678.03
2023-05-14T12:27:31.798Z,100678.41
2023-05-14T12:30:09.223Z,100671.34
2023-05-14T12:32:46.738Z,100670.47
2023-05-14T12:35:13.344Z,100668.44
2023-05-14T12:37:40.237Z,100668.44
2023-05-14T12:40:09.770Z,100672.34
2023-05-14T12:42:36.726Z,100668.75
2023-05-14T12:45:07.580Z,100673.00
2023-05-14T12:47:34.941Z,100653.31
2023-05-14T12:50:01.866Z,100654.34
2023-05-14T12:52:37.603Z,100659.34
2023-05-14T12:55:07.073Z,100655.41
2023-05-14T12:57:35.495Z,100653.59
2023-05-14T13:00:06.926Z,100644.50
2023-05-14T13:02:43.072Z,100641.78
2023-05-14T13:05:13.608Z,100643.19
2023-05-14T13:07:40.804Z,100644.66
2023-05-14T13:10:08.135Z,100637.78
2023-05-14T13:12:35.075Z,100635.22
2023-05-14T13:15:01.639Z,100638.41
2023-05-14T13:17:28.264Z,100635.22
2023-05-14T13:19:54.876Z,100639.94
2023-05-14T13:22:21.549Z,100638.97
2023-05-14T13:24:48.270Z,100633.41
2023-05-14T13:27:14.788Z,100632.25
2023-05-14T13:29:41.473Z,100624.47
2023-05-14T13:32:08.782Z,100628.19
2023-05-14T13:34:35.278Z,100622.16
2023-05-14T13:37:01.822Z,100611.31
2023-05-14T13:39:28.376Z,100616.22
2023-05-14T13:41:56.725Z,100612.47
2023-05-14T13:44:23.405Z,100616.44
2023-05-14T13:46:50.593Z,100606.47
2023-05-14T13:49:17.699Z,100608.38
2023-05-14T13:51:44.497Z,100612.16
2023-05-14T13:54:11.476Z,100604.25
2023-05-14T13:56:38.062Z,100588.44
2023-05-14T13:59:04.764Z,100596.47
2023-05-14T14:01:31.778Z,100593.28
2023-05-14T14:03:58.590Z,100589.84
2023-05-14T14:06:27.569Z,100593.38
2023-05-14T14:08:54.570Z,100578.38
2023-05-14T14:11:21.944Z,100585.81
2023-05-14T14:13:48.468Z,100586.03
2023-05-14T14:16:15.950Z,100586.81
2023-05-14T14:18:43.365Z,100581.13
2023-05-14T14:21:10.359Z,100582.53
2023-05-14T14:23:37.249Z,100579.75
2023-05-14T14:26:04.194Z,100577.41
2023-05-14T14:28:31.587Z,100576.34
2023-05-14T14:30:58.200Z,100576.81
2023-05-14T14:33:25.219Z,100566.81
2023-05-14T14:35:55.531Z,100571.78
2023-05-14T14:38:37.566Z,100566.00
2023-05-14T14:41:04.335Z,100558.34
2023-05-14T14:43:32.140Z,100557.53
2023-05-14T14:45:58.707Z,100551.16
2023-05-14T14:48:37.281Z,100551.00
2023-05-14T14:51:05.935Z,100545.34
2023-05-14T14:53:33.788Z,100549.66
2023-05-14T14:56:01.133Z,100553.66
2023-05-14T14:58:29.115Z,100545.25
2023-05-14T15:00:57.052Z,100548.09
2023-05-14T15:03:24.917Z,100541.00
2023-05-14T15:05:53.362Z,100536.91
2023-05-14T15:08:20.853Z,100532.97
2023-05-14T15:10:47.455Z,100539.50
2023-05-14T15:13:14.163Z,100536.63
2023-05-14T15:15:42.000Z,100533.19
2023-05-14T15:18:08.723Z,100538.38
2023-05-14T15:20:35.551Z,100529.31
2023-05-14T15:23:02.780Z,100529.06
2023-05-14T15:25:29.308Z,100528.53
2023-05-14T15:27:55.824Z,100523.16
2023-05-14T15:30:22.430Z,100527.72
2023-05-14T15:32:49.630Z,100518.84
2023-05-14T15:35:16.665Z,100514.28
2023-05-14T15:37:44.837Z,100515.00
2023-05-14T15:40:12.033Z,100508.63
2023-05-14T15:42:42.079Z,100511.38
2023-05-14T15:45:12.655Z,100511.69
2023-05-14T15:47:39.661Z,100505.03
2023-05-14T15:50:07.126Z,100504.84
2023-05-14T15:52:34.469Z,100511.16
2023-05-14T15:55:01.448Z,100507.16
2023-05-14T15:57:28.042Z,100509.22
2023-05-14T16:02:52.800Z,100498.44
2023-05-14T16:05:19.466Z,100488.34
2023-05-14T16:07:45.945Z,100493.06
2023-05-14T16:10:12.647Z,100493.38
2023-05-14T16:12:39.037Z,100490.59
2023-05-14T16:15:07.118Z,100489.63
2023-05-14T16:17:34.390Z,100486.53
2023-05-14T16:20:01.164Z,100488.19
2023-05-14T16:22:29.208Z,100489.78
2023-05-14T16:24:55.929Z,100494.63
2023-05-14T16:27:22.397Z,100493.63
2023-05-14T16:29:48.786Z,100488.56
2023-05-14T16:32:15.306Z,100490.44
2023-05-14T16:34:41.829Z,100481.28
2023-05-14T16:37:08.514Z,100481.94
2023-05-14T16:39:35.650Z,100491.00
2023-05-14T16:42:02.026Z,100481.22
2023-05-14T16:44:28.391Z,100487.72
2023-05-14T16:46:54.793Z,100488.25
2023-05-14T16:49:24.391Z,100477.34
2023-05-14T16:51:50.819Z,100481.28
2023-05-14T16:54:17.309Z,100485.19
2023-05-14T16:56:47.950Z,100479.69
2023-05-14T16:59:15.825Z,100479.75
2023-05-14T17:01:43.274Z,100480.84
2023-05-14T17:04:10.439Z,100476.91
2023-05-14T17:06:37.059Z,100479.03
2023-05-14T17:09:03.717Z,100483.75
2023-05-14T17:11:30.206Z,100478.16
2023-05-14T17:13:56.726Z,100474.69
2023-05-14T17:16:23.239Z,100477.66
2023-05-14T17:18:49.658Z,100478.28
2023-05-14T17:21:16.041Z,100472.28
2023-05-14T17:23:42.463Z,100472.38
2023-05-14T17:26:08.864Z,100482.59
2023-05-14T17:28:35.417Z,100483.31
2023-05-14T17:31:02.097Z,100484.47
2023-05-14T17:33:28.583Z,100495.03
2023-05-14T17:35:55.017Z,100484.81
2023-05-14T17:38:21.431Z,100492.38
2023-05-14T17:40:47.968Z,100492.28
2023-05-14T17:43:14.352Z,100493.78
2023-05-14T17:45:52.966Z,100493.56
2023-05-14T17:48:20.647Z,100497.56
2023-05-14T17:50:47.113Z,100490.88
2023-05-14T17:53:13.745Z,100498.81
2023-05-14T17:55:43.425Z,100500.91
2023-05-14T17:58:11.562Z,100495.31
2023-05-14T18:00:38.112Z,100492.91
2023-05-14T18:03:04.789Z,100503.72
2023-05-14T18:05:32.308Z,100507.00
2023-05-14T18:07:58.763Z,100497.75
2023-05-14T18:10:25.457Z,100506.63
2023-05-14T18:12:52.036Z,100510.44
2023-05-14T18:15:20.302Z,100512.19
2023-05-14T18:17:47.076Z,100508.91
2023-05-14T18:20:13.516Z,100513.56
2023-05-14T18:22:39.979Z,100514.94
2023-05-14T18:25:07.154Z,100514.50
2023-05-14T18:27:34.184Z,100511.66
2023-05-14T18:30:00.650Z,100508.56
2023-05-14T18:32:29.555Z,100517.63
2023-05-14T18:34:56.017Z,100515.31
2023-05-14T18:37:22.463Z,100505.13
2023-05-14T18:39:48.895Z,100507.78
2023-05-14T18:42:16.576Z,100503.75
2023-05-14T18:44:44.658Z,100506.38
2023-05-14T18:47:11.270Z,100509.91
2023-05-14T18:49:42.186Z,100514.84
2023-05-14T18:52:08.628Z,100501.66
2023-05-14T18:54:35.288Z,100511.38
2023-05-14T18:57:01.789Z,100504.41
2023-05-14T18:59:28.220Z,100511.28
2023-05-14T19:01:54.763Z,100496.50
2023-05-14T19:04:21.377Z,100513.22
2023-05-14T19:06:47.836Z,100511.13
2023-05-14T19:09:15.642Z,100513.72
2023-05-14T19:11:42.286Z,100511.13
2023-05-14T19:14:09.327Z,100517.13
2023-05-14T19:16:35.797Z,100513.47
2023-05-14T19:19:03.183Z,100511.06
2023-05-14T19:21:29.662Z,100518.03
2023-05-14T19:23:56.180Z,100516.72
2023-05-14T19:26:22.626Z,100516.06
2023-05-14T19:28:49.109Z,100511.28
2023-05-14T19:31:15.904Z,100514.97
2023-05-14T19:33:42.335Z,100516.09
2023-05-14T19:36:08.770Z,100520.31
2023-05-14T19:38:35.630Z,100513.81
2023-05-14T19:41:02.024Z,100509.47
2023-05-14T19:43:28.460Z,100502.63
2023-05-14T19:45:54.948Z,100502.63
2023-05-14T19:48:21.434Z,100497.59
2023-05-14T19:50:48.432Z,100500.66
2023-05-14T19:53:14.886Z,100490.72
2023-05-14T19:55:42.062Z,100485.44
2023-05-14T19:58:08.804Z,100484.59
2023-05-14T20:00:36.840Z,100481.75
2023-05-14T20:03:04.266Z,100489.03
2023-05-14T20:05:30.830Z,100485.78
2023-05-14T20:07:57.286Z,100484.84
2023-05-14T20:10:24.207Z,100472.72
2023-05-14T20:12:50.818Z,100480.50
2023-05-14T20:15:17.209Z,100482.59
2023-05-14T20:17:43.679Z,100479.38
2023-05-14T20:20:10.986Z,100476.16
2023-05-14T20:22:38.228Z,100474.91
2023-05-14T20:25:05.038Z,100477.06
2023-05-14T20:27:31.967Z,100473.69
2023-05-14T20:29:58.370Z,100480.53
2023-05-14T20:32:25.047Z,100485.06
2023-05-14T20:34:51.873Z,100475.44
2023-05-14T20:37:19.749Z,100471.72
2023-05-14T20:39:46.734Z,100475.25
2023-05-14T20:42:13.232Z,100474.78
2023-05-14T20:44:39.918Z,100475.00
2023-05-14T20:47:06.492Z,100466.81
2023-05-14T20:49:32.878Z,100473.88
2023-05-14T20:51:59.300Z,100462.72
2023-05-14T20:54:25.791Z,100459.97
2023-05-14T20:56:52.224Z,100467.22
2023-05-14T20:59:18.608Z,100463.34
2023-05-14T21:01:45.062Z,100458.25
2023-05-14T21:04:11.768Z,100461.00
2023-05-14T21:06:38.350Z,100458.63
2023-05-14T21:09:04.745Z,100453.19
2023-05-14T21:11:31.233Z,100458.53
2023-05-14T21:13:57.675Z,100456.03
2023-05-14T21:16:24.209Z,100453.19
2023-05-14T21:18:50.692Z,100448.84
2023-05-14T21:21:17.183Z,100452.22
2023-05-14T21:23:43.564Z,100447.75
2023-05-14T21:26:10.149Z,100445.97
2023-05-14T21:28:36.824Z,100451.00
2023-05-14T21:31:03.248Z,100449.25
2023-05-14T21:33:29.626Z,100444.63
2023-05-14T21:35:56.279Z,100445.09
2023-05-14T21:38:22.840Z,100447.69
2023-05-14T21:40:49.258Z,100448.66
2023-05-14T21:43:15.732Z,100449.31
2023-05-14T21:45:43.868Z,100448.66
2023-05-14T21:48:10.751Z,100445.28
2023-05-14T21:50:37.375Z,100441.25
2023-05-14T21:53:03.855Z,100439.81
2023-05-14T21:55:30.395Z,100428.72
2023-05-14T21:57:56.965Z,100436.91
2023-05-14T22:00:24.058Z,100439.00
2023-05-14T22:02:52.582Z,100429.16
2023-05-14T22:05:19.755Z,100431.25
2023-05-14T22:07:46.415Z,100427.91
2023-05-14T22:10:14.348Z,100436.75
2023-05-14T22:12:42.190Z,100435.28
2023-05-14T22:15:09.728Z,100433.03
2023-05-14T22:17:36.400Z,100428.53
2023-05-14T22:20:05.552Z,100436.88
2023-05-14T22:22:32.821Z,100430.13
2023-05-14T22:25:00.197Z,100428.31
2023-05-14T22:27:26.624Z,100435.53
2023-05-14T22:29:55.083Z,100432.78
2023-05-14T22:32:21.706Z,100427.44
2023-05-14T22:34:48.142Z,100424.34
2023-05-14T22:37:14.622Z,100420.97
2023-05-14T22:39:41.363Z,100429.44
2023-05-14T22:42:08.023Z,100422.06
2023-05-14T22:44:36.548Z,100423.88
2023-05-14T22:47:05.155Z,100420.38
2023-05-14T22:49:31.810Z,100416.88
2023-05-14T22:51:58.294Z,100418.97
2023-05-14T22:54:24.699Z,100418.66
2023-05-14T22:56:51.514Z,100422.97
2023-05-14T22:59:17.974Z,100423.78
2023-05-14T23:01:44.475Z,100426.75
2023-05-14T23:04:11.068Z,100421.53
2023-05-14T23:06:37.497Z,100420.25
2023-05-14T23:09:04.008Z,100414.53
2023-05-14T23:11:30.412Z,100408.44
2023-05-14T23:13:56.974Z,100406.66
2023-05-14T23:16:23.504Z,100407.91
2023-05-14T23:18:50.081Z,100397.63
2023-05-14T23:21:16.739Z,100392.38
2023-05-14T23:23:43.230Z,100392.91
2023-05-14T23:26:09.688Z,100393.06
2023-05-14T23:28:36.176Z,100383.75
2023-05-14T23:31:02.618Z,100381.66
2023-05-14T23:33:29.068Z,100373.31
2023-05-14T23:35:55.572Z,100366.09
2023-05-14T23:38:22.349Z,100362.06
2023-05-14T23:40:49.293Z,100362.03
2023-05-14T23:43:15.830Z,100358.66
2023-05-14T23:45:42.329Z,100357.84
2023-05-14T23:48:08.842Z,100363.59
2023-05-14T23:50:35.366Z,100366.31
2023-05-14T23:53:01.797Z,100365.47
2023-05-14T23:55:28.313Z,100348.31
2023-05-14T23:57:54.746Z,100348.91
